Terminal Aerodrome Forecast
Issued by NWS

Home | Current Version | Previous Version | Text Only | Print | Product List | Glossary On
Versions: 1 2 3 4 5 6 7 8 9 10 11 12 13 14 15 16 17 18
000
FTUS43 KPAH 191700
TAFCGI
TAF
KCGI 191720Z 1918/2018 04005KT P6SM SCT015 OVC035
     FM192300 04003KT P6SM SCT005 OVC015
     FM200200 VRB02KT 3SM BR OVC005
     FM200500 VRB02KT 1 1/2SM BR OVC003
     FM201400 VRB02KT 5SM BR SCT004 BKN012
     FM201600 VRB03KT P6SM BKN015=

USA.gov is the U.S. government's official web portal to all federal, state and local government web resources and services.